Time;durP1;ratioP1;P1;durP2;ratioP2;P2;SDS_P1;SDS_P2;PMS_P1;PMS_P2;Temp;Humidity;BMP_temperature;BMP_pressure;BME280_temperature;BME280_humidity;BME280_pressure;Samples;Min_cycle;Max_cycle;Signal;HPM_P1;HPM_P2
2022/01/17 00:00:30;;;;;;;10.63;5.90;;;4.70;69.60;;;;;;7372884;19;20155;-38
2022/01/17 00:03:03;;;;;;;9.43;7.00;;;4.80;69.40;;;;;;7367431;19;20649;-36
2022/01/17 00:05:33;;;;;;;7.20;5.68;;;5.00;68.90;;;;;;7370398;19;20147;-38
2022/01/17 00:08:03;;;;;;;9.00;5.97;;;5.00;68.50;;;;;;7375069;19;20128;-38
2022/01/17 00:10:32;;;;;;;12.82;6.50;;;5.20;68.50;;;;;;7373135;19;20606;-38
2022/01/17 00:13:02;;;;;;;12.07;7.00;;;4.90;68.80;;;;;;7364947;19;20654;-38
2022/01/17 00:15:45;;;;;;;9.57;6.45;;;4.90;69.20;;;;;;7367879;19;20130;-39
2022/01/17 00:21:06;;;;;;;7.78;5.45;;;5.20;68.70;;;;;;7357847;19;20162;-37
2022/01/17 00:23:36;;;;;;;8.88;5.80;;;5.20;68.30;;;;;;7360028;19;20644;-37
2022/01/17 00:26:06;;;;;;;7.88;5.25;;;5.10;68.70;;;;;;7367005;19;20208;-37
2022/01/17 00:28:36;;;;;;;9.07;5.32;;;5.00;70.00;;;;;;7372357;19;20163;-38
2022/01/17 00:31:08;;;;;;;9.90;5.65;;;5.00;69.10;;;;;;7364130;19;20131;-38
2022/01/17 00:33:38;;;;;;;8.48;5.82;;;5.00;69.40;;;;;;7367537;19;20138;-38
2022/01/17 00:36:08;;;;;;;9.45;5.78;;;5.00;69.50;;;;;;7363675;19;20147;-39
2022/01/17 00:38:37;;;;;;;7.13;5.38;;;4.90;69.90;;;;;;7371018;19;20132;-38
2022/01/17 00:41:07;;;;;;;7.70;5.80;;;4.90;70.10;;;;;;7374212;19;20621;-37
2022/01/17 00:43:36;;;;;;;8.88;5.65;;;4.90;70.20;;;;;;7368716;19;20140;-37
2022/01/17 00:46:09;;;;;;;7.38;5.68;;;4.90;70.50;;;;;;7368410;19;20239;-37
2022/01/17 00:48:38;;;;;;;9.95;5.97;;;4.90;70.80;;;;;;7366069;19;20178;-37
2022/01/17 00:51:08;;;;;;;7.25;5.00;;;5.10;70.00;;;;;;7370772;19;20132;-37
2022/01/17 00:53:40;;;;;;;8.55;5.10;;;5.10;69.70;;;;;;7364948;19;20255;-37
2022/01/17 00:56:10;;;;;;;9.75;6.10;;;5.00;70.30;;;;;;7366817;19;20591;-37
2022/01/17 00:58:39;;;;;;;6.25;4.47;;;4.90;70.40;;;;;;7366113;19;20131;-37
2022/01/17 01:01:11;;;;;;;8.32;5.65;;;4.90;70.50;;;;;;7362718;19;20131;-37
2022/01/17 01:03:41;;;;;;;8.57;5.07;;;5.00;70.30;;;;;;7367476;19;20147;-37
2022/01/17 01:06:11;;;;;;;8.25;5.25;;;5.20;69.70;;;;;;7365179;19;20609;-37
2022/01/17 01:08:40;;;;;;;8.25;5.78;;;5.20;69.50;;;;;;7371964;19;20547;-37
2022/01/17 01:11:10;;;;;;;7.55;4.88;;;5.00;70.40;;;;;;7360407;19;20154;-37
2022/01/17 01:13:41;;;;;;;9.38;5.40;;;4.90;70.90;;;;;;7371453;19;20717;-37
2022/01/17 01:16:32;;;;;;;7.28;5.25;;;5.00;70.90;;;;;;7368685;19;20142;-37
2022/01/17 01:19:25;;;;;;;9.55;6.35;;;5.00;71.30;;;;;;7367359;19;20136;-37
2022/01/17 01:27:52;;;;;;;12.40;7.80;;;4.80;72.10;;;;;;7375352;19;20131;-36
2022/01/17 01:30:23;;;;;;;12.95;7.10;;;4.80;72.10;;;;;;7371438;19;20600;-37
2022/01/17 01:32:58;;;;;;;12.52;7.85;;;4.80;72.50;;;;;;7369135;19;20446;-37
2022/01/17 01:35:31;;;;;;;14.18;8.27;;;4.90;72.30;;;;;;7367747;19;20819;-36
2022/01/17 01:38:03;;;;;;;14.18;8.05;;;4.80;72.20;;;;;;7372787;19;20131;-37
2022/01/17 01:40:33;;;;;;;12.25;8.07;;;4.80;72.60;;;;;;7370662;19;20617;-37
2022/01/17 01:43:03;;;;;;;12.75;8.30;;;4.80;72.40;;;;;;7364071;19;20143;-37
2022/01/17 01:45:33;;;;;;;13.18;8.93;;;4.70;73.10;;;;;;7368745;19;20128;-37
2022/01/17 01:48:05;;;;;;;14.45;9.13;;;4.70;73.00;;;;;;7367869;19;20870;-37
2022/01/17 01:50:35;;;;;;;12.82;8.48;;;4.70;73.10;;;;;;7372293;19;20135;-37
2022/01/17 01:53:05;;;;;;;17.20;9.93;;;4.90;72.60;;;;;;7370505;19;20606;-37
2022/01/17 01:55:34;;;;;;;10.82;7.95;;;4.90;71.90;;;;;;7368653;19;20736;-37
2022/01/17 01:58:04;;;;;;;14.55;8.32;;;4.90;72.10;;;;;;7357683;19;20139;-36
2022/01/17 02:00:33;;;;;;;12.98;8.18;;;5.00;71.50;;;;;;7369206;19;20128;-37
2022/01/17 02:03:08;;;;;;;14.75;9.95;;;4.90;71.70;;;;;;7366421;19;20135;-37
2022/01/17 02:05:38;;;;;;;12.02;7.82;;;4.80;72.00;;;;;;7371798;19;20163;-37
2022/01/17 02:08:07;;;;;;;12.55;8.07;;;4.90;72.50;;;;;;7366951;19;20131;-37
2022/01/17 02:10:37;;;;;;;12.77;8.38;;;4.80;72.20;;;;;;7365393;19;20155;-37
2022/01/17 02:13:07;;;;;;;9.90;7.25;;;4.70;72.80;;;;;;7359890;19;20139;-37
2022/01/17 02:15:37;;;;;;;10.98;7.15;;;4.70;73.00;;;;;;7364724;19;20131;-36
2022/01/17 02:18:12;;;;;;;15.23;8.48;;;4.60;72.60;;;;;;7363546;19;20202;-38
2022/01/17 02:20:58;;;;;;;13.10;8.20;;;4.70;72.20;;;;;;7366653;19;20138;-38
2022/01/17 02:23:27;;;;;;;16.88;7.97;;;4.50;73.00;;;;;;7361705;19;20150;-38
2022/01/17 02:25:57;;;;;;;12.88;8.57;;;4.60;73.30;;;;;;7365026;19;20135;-38
2022/01/17 02:28:27;;;;;;;10.63;6.90;;;4.60;72.70;;;;;;7364821;19;20202;-38
2022/01/17 02:30:59;;;;;;;12.82;7.45;;;4.70;72.80;;;;;;7370134;19;20138;-34
2022/01/17 02:33:31;;;;;;;12.48;7.65;;;4.60;72.70;;;;;;7368760;19;20139;-34
2022/01/17 02:36:04;;;;;;;10.15;6.80;;;4.60;72.00;;;;;;7371132;19;20143;-34
2022/01/17 02:38:33;;;;;;;12.88;8.43;;;4.80;72.90;;;;;;7364520;19;20618;-34
2022/01/17 02:41:03;;;;;;;9.38;6.43;;;4.70;71.80;;;;;;7368986;19;20613;-34
2022/01/17 02:43:32;;;;;;;16.10;6.93;;;4.60;72.70;;;;;;7364161;19;20162;-34
2022/01/17 02:48:45;;;;;;;12.20;7.65;;;4.80;72.70;;;;;;7361839;19;20174;-34
2022/01/17 02:51:17;;;;;;;10.13;6.65;;;4.90;72.50;;;;;;7369930;19;20184;-34
2022/01/17 02:53:47;;;;;;;13.77;7.30;;;4.90;72.50;;;;;;7361671;19;20617;-34
2022/01/17 02:56:16;;;;;;;9.05;6.82;;;5.00;72.10;;;;;;7371702;19;20704;-34
2022/01/17 02:58:46;;;;;;;10.75;7.10;;;5.00;72.30;;;;;;7363677;19;20522;-34
2022/01/17 03:01:18;;;;;;;12.32;7.90;;;4.90;72.60;;;;;;7364628;19;20127;-34
2022/01/17 03:03:48;;;;;;;9.68;7.38;;;4.90;73.20;;;;;;7367222;19;20413;-34
2022/01/17 03:06:21;;;;;;;10.57;6.78;;;5.00;72.40;;;;;;7367768;19;20136;-34
2022/01/17 03:08:51;;;;;;;9.85;6.63;;;5.00;72.20;;;;;;7366515;19;20124;-34
2022/01/17 03:11:22;;;;;;;12.18;7.50;;;5.00;72.20;;;;;;7367945;19;20539;-38
2022/01/17 03:13:52;;;;;;;13.52;8.27;;;5.00;71.80;;;;;;7369492;19;20171;-38
2022/01/17 03:16:29;;;;;;;10.57;6.55;;;5.00;72.40;;;;;;7369016;19;20165;-38
2022/01/17 03:19:00;;;;;;;11.23;6.53;;;5.10;71.70;;;;;;7363057;19;20645;-38
2022/01/17 03:21:32;;;;;;;11.05;8.13;;;5.20;71.40;;;;;;7371138;19;20132;-37
2022/01/17 03:24:02;;;;;;;11.15;7.05;;;5.10;71.10;;;;;;7368114;19;20146;-37
2022/01/17 03:26:31;;;;;;;9.88;7.35;;;5.00;71.70;;;;;;7371328;19;20159;-37
2022/01/17 03:29:02;;;;;;;8.85;5.50;;;5.00;72.20;;;;;;7369658;19;20669;-38
2022/01/17 03:31:32;;;;;;;10.48;6.65;;;4.90;72.30;;;;;;7369388;19;20135;-37
2022/01/17 03:34:01;;;;;;;10.68;6.60;;;4.80;72.80;;;;;;7367947;19;20132;-38
2022/01/17 03:36:34;;;;;;;9.38;6.55;;;4.90;72.60;;;;;;7374534;19;20966;-38
2022/01/17 03:39:06;;;;;;;10.15;7.32;;;4.70;73.40;;;;;;7373193;19;20131;-38
2022/01/17 03:41:35;;;;;;;12.85;7.72;;;4.70;73.50;;;;;;7369053;19;20167;-38
2022/01/17 03:44:05;;;;;;;10.82;6.75;;;4.80;73.80;;;;;;7376659;19;20169;-38
2022/01/17 03:46:39;;;;;;;10.60;6.72;;;4.80;74.70;;;;;;7373922;19;20135;-38
2022/01/17 03:49:08;;;;;;;11.10;7.07;;;4.80;74.60;;;;;;7374002;19;20147;-38
2022/01/17 03:51:41;;;;;;;10.52;6.50;;;4.90;75.00;;;;;;7376898;19;20183;-38
2022/01/17 03:54:10;;;;;;;11.65;6.32;;;4.90;75.80;;;;;;7374649;19;20139;-38
2022/01/17 03:56:40;;;;;;;11.68;6.45;;;4.90;76.30;;;;;;7367425;19;20463;-37
2022/01/17 03:59:12;;;;;;;9.02;6.32;;;4.80;76.50;;;;;;7371684;19;20148;-37
2022/01/17 04:01:42;;;;;;;11.63;7.15;;;4.70;77.30;;;;;;7372647;19;20140;-38
2022/01/17 04:04:12;;;;;;;13.13;7.20;;;4.70;78.20;;;;;;7365657;19;20187;-38
2022/01/17 04:06:44;;;;;;;7.93;6.00;;;4.60;79.20;;;;;;7372720;19;20187;-37
2022/01/17 04:09:13;;;;;;;14.27;8.27;;;4.40;80.50;;;;;;7374184;19;20733;-38
2022/01/17 04:11:43;;;;;;;14.60;6.47;;;4.30;81.90;;;;;;7363272;19;20666;-37
2022/01/17 04:14:12;;;;;;;12.23;7.45;;;4.40;80.90;;;;;;7369922;19;20168;-38
2022/01/17 04:16:42;;;;;;;12.45;6.88;;;4.30;81.50;;;;;;7368762;19;20140;-37
2022/01/17 04:19:12;;;;;;;10.52;6.57;;;4.30;82.10;;;;;;7372144;19;20127;-38
2022/01/17 04:21:47;;;;;;;9.70;6.18;;;4.20;83.00;;;;;;7372869;19;20648;-37
2022/01/17 04:24:17;;;;;;;8.38;5.07;;;4.10;83.20;;;;;;7374270;19;20135;-38
2022/01/17 04:26:46;;;;;;;11.75;7.28;;;4.10;84.00;;;;;;7372740;19;20131;-37
2022/01/17 04:29:16;;;;;;;10.50;6.68;;;4.00;84.60;;;;;;7379431;19;20131;-38
2022/01/17 04:31:45;;;;;;;11.30;6.63;;;4.00;84.50;;;;;;7375837;19;20131;-37
2022/01/17 04:34:15;;;;;;;10.40;6.30;;;4.00;84.70;;;;;;7373567;19;20831;-38
2022/01/17 04:36:47;;;;;;;11.07;6.60;;;4.00;84.80;;;;;;7376399;19;20131;-37
2022/01/17 04:39:20;;;;;;;8.60;6.47;;;4.10;84.50;;;;;;7373934;19;20147;-38
2022/01/17 04:41:49;;;;;;;12.35;6.32;;;4.10;84.20;;;;;;7369190;19;20664;-38
2022/01/17 04:47:01;;;;;;;8.88;6.30;;;4.10;83.80;;;;;;7374085;19;20132;-38
2022/01/17 04:49:30;;;;;;;12.93;7.70;;;4.20;83.20;;;;;;7374583;19;20152;-38
2022/01/17 04:52:02;;;;;;;12.90;7.22;;;4.40;83.00;;;;;;7373713;19;20135;-38
2022/01/17 04:54:52;;;;;;;12.15;7.45;;;4.30;82.30;;;;;;7374720;19;20138;-38
2022/01/17 04:57:22;;;;;;;8.40;6.28;;;4.60;82.30;;;;;;7372532;19;20128;-37
2022/01/17 04:59:54;;;;;;;8.00;5.80;;;4.20;81.10;;;;;;7370263;19;20131;-37
2022/01/17 05:02:23;;;;;;;10.18;6.32;;;4.70;81.50;;;;;;7359901;19;20132;-38
2022/01/17 05:04:53;;;;;;;12.30;7.00;;;4.70;80.20;;;;;;7373380;19;20517;-38
2022/01/17 05:07:25;;;;;;;10.52;7.07;;;4.70;80.80;;;;;;7371784;19;20128;-38
2022/01/17 05:09:55;;;;;;;11.63;6.10;;;4.60;81.10;;;;;;7365290;19;20124;-38
2022/01/17 05:12:25;;;;;;;11.05;6.97;;;4.60;81.40;;;;;;7354942;19;20147;-37
2022/01/17 05:14:55;;;;;;;10.32;6.35;;;4.60;81.30;;;;;;7363550;19;20128;-38
2022/01/17 05:17:37;;;;;;;8.65;6.30;;;4.70;80.90;;;;;;7354451;19;20606;-37
2022/01/17 05:20:10;;;;;;;10.23;6.55;;;4.70;80.90;;;;;;7359382;19;20133;-37
2022/01/17 05:22:42;;;;;;;9.82;6.97;;;4.80;80.00;;;;;;7361893;19;20139;-38
2022/01/17 05:25:13;;;;;;;9.43;6.35;;;4.80;79.80;;;;;;7370751;19;20628;-38
2022/01/17 05:27:45;;;;;;;7.68;5.47;;;4.70;80.60;;;;;;7370162;19;20195;-38
2022/01/17 05:30:20;;;;;;;12.13;5.97;;;4.60;80.60;;;;;;7367591;19;20140;-38
2022/01/17 05:32:50;;;;;;;8.32;5.90;;;4.70;81.20;;;;;;7356020;19;20587;-38
2022/01/17 05:35:20;;;;;;;12.93;6.97;;;4.70;80.60;;;;;;7370317;19;20138;-38
2022/01/17 05:37:55;;;;;;;10.45;5.82;;;4.80;81.50;;;;;;7367030;19;20127;-38
2022/01/17 05:40:25;;;;;;;12.88;6.57;;;4.80;80.10;;;;;;7370565;19;20142;-38
2022/01/17 05:42:54;;;;;;;7.63;5.30;;;4.50;80.30;;;;;;7376371;19;20131;-38
2022/01/17 05:45:24;;;;;;;6.93;4.90;;;4.80;80.40;;;;;;7375617;19;20225;-38
2022/01/17 05:47:55;;;;;;;10.68;5.78;;;4.80;80.70;;;;;;7371320;19;20505;-38
2022/01/17 05:50:28;;;;;;;10.52;6.15;;;4.80;79.60;;;;;;7372731;19;20139;-38
2022/01/17 05:53:00;;;;;;;7.20;5.55;;;4.80;80.10;;;;;;7371438;19;20127;-38
2022/01/17 05:55:29;;;;;;;7.22;5.43;;;4.90;79.70;;;;;;7374315;19;20140;-37
2022/01/17 05:57:59;;;;;;;9.88;6.53;;;4.90;80.10;;;;;;7374016;19;20142;-37
2022/01/17 06:00:29;;;;;;;7.53;5.63;;;5.00;80.10;;;;;;7371391;19;20133;-38
2022/01/17 06:02:58;;;;;;;9.75;5.65;;;5.00;79.90;;;;;;7372965;19;20143;-37
2022/01/17 06:05:28;;;;;;;14.95;5.85;;;5.00;79.30;;;;;;7374633;19;20195;-38
2022/01/17 06:08:00;;;;;;;7.63;5.22;;;4.90;79.70;;;;;;7372160;19;20218;-38
2022/01/17 06:10:30;;;;;;;10.35;5.95;;;5.00;79.80;;;;;;7377924;19;20482;-38
2022/01/17 06:13:02;;;;;;;8.30;5.70;;;5.10;79.60;;;;;;7375671;19;20132;-37
2022/01/17 06:15:32;;;;;;;7.95;6.05;;;5.10;79.70;;;;;;7373282;19;20523;-38
2022/01/17 06:18:01;;;;;;;8.80;5.90;;;5.20;79.70;;;;;;7376855;19;20136;-38
2022/01/17 06:20:31;;;;;;;13.93;8.35;;;5.10;79.90;;;;;;7376234;19;20131;-38
2022/01/17 06:23:05;;;;;;;13.45;6.88;;;5.10;80.70;;;;;;7373877;19;20132;-38
2022/01/17 06:25:34;;;;;;;7.90;6.00;;;5.00;80.70;;;;;;7370313;19;20476;-38
2022/01/17 06:28:04;;;;;;;17.40;7.05;;;5.10;80.80;;;;;;7369891;19;20605;-38
2022/01/17 06:30:34;;;;;;;17.45;8.45;;;5.20;80.40;;;;;;7369076;19;20143;-37
2022/01/17 06:33:03;;;;;;;8.50;6.20;;;5.20;79.70;;;;;;7371064;19;20489;-38
2022/01/17 06:35:33;;;;;;;7.15;5.38;;;5.30;79.50;;;;;;7368782;19;20139;-38
2022/01/17 06:38:06;;;;;;;12.07;6.82;;;5.50;78.80;;;;;;7374540;19;20128;-38
2022/01/17 06:40:35;;;;;;;8.00;5.65;;;5.40;79.00;;;;;;7364720;19;20132;-38
2022/01/17 06:43:08;;;;;;;8.13;5.97;;;5.60;78.30;;;;;;7373189;19;20127;-38
2022/01/17 06:45:43;;;;;;;9.73;6.30;;;5.50;79.10;;;;;;7365885;19;20492;-38
2022/01/17 06:48:12;;;;;;;11.70;9.75;;;5.50;79.20;;;;;;7369511;19;20148;-37
2022/01/17 06:50:42;;;;;;;12.50;7.25;;;5.50;78.80;;;;;;7374501;19;20222;-38
2022/01/17 06:53:14;;;;;;;8.15;5.57;;;5.40;79.10;;;;;;7370872;19;20131;-37
2022/01/17 06:55:43;;;;;;;7.28;5.30;;;5.30;79.70;;;;;;7371619;19;20155;-37
2022/01/17 06:58:13;;;;;;;9.73;5.75;;;5.40;79.40;;;;;;7370256;19;20143;-38
2022/01/17 07:00:44;;;;;;;5.72;4.30;;;5.40;79.70;;;;;;7366200;19;20138;-38
2022/01/17 07:03:14;;;;;;;7.93;5.15;;;5.40;78.70;;;;;;7372890;19;20556;-38
2022/01/17 07:05:44;;;;;;;8.70;4.93;;;5.30;79.10;;;;;;7367402;19;20653;-37
2022/01/17 07:08:16;;;;;;;6.60;5.50;;;5.30;78.90;;;;;;7372809;19;20127;-37
2022/01/17 07:10:45;;;;;;;9.43;6.28;;;5.40;78.50;;;;;;7368132;19;20163;-38
2022/01/17 07:13:17;;;;;;;5.63;4.00;;;5.30;78.60;;;;;;7380005;19;20131;-38
2022/01/17 07:15:46;;;;;;;7.95;5.07;;;5.10;79.10;;;;;;7374887;19;20135;-38
2022/01/17 07:18:16;;;;;;;6.20;5.07;;;5.30;78.50;;;;;;7380248;19;20151;-38
2022/01/17 07:20:46;;;;;;;8.50;5.53;;;5.40;78.50;;;;;;7367470;19;20151;-38
2022/01/17 07:23:18;;;;;;;6.97;4.82;;;5.40;78.00;;;;;;7371006;19;20610;-38
2022/01/17 07:25:48;;;;;;;7.32;5.55;;;5.30;78.30;;;;;;7375923;19;20135;-38
2022/01/17 07:28:17;;;;;;;6.18;5.18;;;4.60;78.30;;;;;;7376743;19;20703;-38
2022/01/17 07:30:49;;;;;;;8.02;5.10;;;5.30;78.80;;;;;;7373986;19;20135;-38
2022/01/17 07:33:21;;;;;;;7.22;5.18;;;5.30;78.80;;;;;;7377233;19;20503;-38
2022/01/17 07:35:51;;;;;;;7.57;4.20;;;5.00;79.80;;;;;;7378488;19;20135;-38
2022/01/17 07:38:23;;;;;;;7.15;5.20;;;5.10;80.00;;;;;;7375511;19;20131;-38
2022/01/17 07:40:53;;;;;;;6.35;4.57;;;5.20;79.70;;;;;;7368866;19;20606;-38
2022/01/17 07:43:22;;;;;;;6.80;4.82;;;5.30;79.30;;;;;;7368283;19;20135;-37
2022/01/17 07:46:04;;;;;;;5.63;4.13;;;5.30;78.70;;;;;;7373052;19;20442;-38
2022/01/17 07:51:25;;;;;;;6.72;4.55;;;5.40;78.00;;;;;;7374424;19;20546;-37
2022/01/17 07:54:00;;;;;;;4.45;4.03;;;5.40;77.90;;;;;;7379664;19;20516;-38
2022/01/17 07:56:30;;;;;;;7.22;4.80;;;5.40;78.20;;;;;;7377158;19;20131;-38
2022/01/17 07:58:59;;;;;;;4.93;3.92;;;5.40;78.20;;;;;;7371576;19;20139;-38
2022/01/17 08:01:29;;;;;;;6.63;4.50;;;5.40;77.80;;;;;;7362274;19;20138;-38
2022/01/17 08:03:59;;;;;;;5.22;4.15;;;5.50;77.70;;;;;;7375140;19;20135;-37
2022/01/17 08:06:31;;;;;;;8.13;4.68;;;5.50;77.50;;;;;;7378738;19;20132;-37
2022/01/17 08:09:04;;;;;;;6.55;5.20;;;5.60;77.10;;;;;;7376575;19;20138;-37
2022/01/17 08:11:33;;;;;;;7.10;4.53;;;5.90;76.50;;;;;;7369470;19;20500;-38
2022/01/17 08:14:03;;;;;;;5.63;4.25;;;5.70;77.20;;;;;;7372373;19;20132;-38
2022/01/17 08:16:33;;;;;;;9.27;5.03;;;5.80;76.80;;;;;;7371378;19;20158;-37
2022/01/17 08:19:02;;;;;;;6.22;4.22;;;5.80;76.60;;;;;;7375345;19;20143;-37
2022/01/17 08:21:32;;;;;;;7.05;5.22;;;5.90;75.90;;;;;;7375783;19;20849;-38
2022/01/17 08:24:04;;;;;;;6.22;4.53;;;5.90;76.10;;;;;;7378768;19;20138;-38
2022/01/17 08:26:34;;;;;;;6.18;4.68;;;5.90;75.50;;;;;;7376254;19;20140;-37
2022/01/17 08:29:04;;;;;;;8.70;5.80;;;6.00;74.90;;;;;;7376667;19;20146;-37
2022/01/17 08:31:33;;;;;;;8.70;5.80;;;6.00;75.20;;;;;;7372405;19;20730;-38
2022/01/17 08:34:03;;;;;;;8.48;5.10;;;6.10;74.20;;;;;;7376824;19;20143;-37
2022/01/17 08:36:32;;;;;;;9.25;4.47;;;6.10;74.50;;;;;;7370819;19;20653;-37
2022/01/17 08:39:06;;;;;;;5.55;4.78;;;6.20;73.80;;;;;;7371426;19;20139;-38
2022/01/17 08:41:36;;;;;;;6.80;4.22;;;6.10;73.90;;;;;;7372457;19;20159;-38
2022/01/17 08:44:07;;;;;;;5.40;4.13;;;6.20;73.60;;;;;;7371095;19;20146;-37
2022/01/17 08:46:36;;;;;;;6.35;3.70;;;6.20;73.20;;;;;;7373735;19;20138;-38
2022/01/17 08:49:06;;;;;;;5.78;3.55;;;6.20;73.10;;;;;;7367156;19;20151;-38
2022/01/17 08:51:35;;;;;;;5.82;3.65;;;6.20;72.90;;;;;;7373534;19;20143;-37
2022/01/17 08:54:09;;;;;;;5.45;3.72;;;6.30;73.10;;;;;;7374956;19;20613;-38
2022/01/17 08:56:38;;;;;;;5.60;4.13;;;6.30;73.10;;;;;;7365195;19;20152;-46
2022/01/17 08:59:08;;;;;;;4.15;3.20;;;6.60;73.60;;;;;;7363639;19;20826;-46
2022/01/17 09:01:38;;;;;;;5.32;3.95;;;6.80;70.70;;;;;;7373229;19;20134;-45
2022/01/17 09:04:08;;;;;;;8.70;4.35;;;7.20;69.50;;;;;;7371671;19;20135;-46
2022/01/17 09:06:37;;;;;;;5.07;3.72;;;7.40;68.70;;;;;;7375998;19;20138;-45
2022/01/17 09:09:10;;;;;;;4.95;3.90;;;7.40;68.30;;;;;;7370397;19;20124;-45
2022/01/17 09:11:39;;;;;;;5.65;3.47;;;7.50;68.10;;;;;;7362669;19;20160;-46
2022/01/17 09:14:09;;;;;;;5.15;3.90;;;7.60;66.40;;;;;;7372891;19;20503;-46
2022/01/17 09:16:39;;;;;;;4.80;3.80;;;8.00;65.80;;;;;;7373574;19;20135;-46
2022/01/17 09:19:08;;;;;;;3.70;3.05;;;8.20;64.30;;;;;;7366921;19;20132;-46
2022/01/17 09:21:38;;;;;;;7.40;3.78;;;7.70;65.50;;;;;;7367323;19;20134;-46
2022/01/17 09:24:10;;;;;;;4.13;3.30;;;7.40;66.70;;;;;;7364796;19;20542;-45
2022/01/17 09:26:40;;;;;;;4.47;3.28;;;7.00;67.50;;;;;;7370632;19;20142;-46
2022/01/17 09:29:09;;;;;;;5.40;3.33;;;7.00;68.20;;;;;;7365281;19;20174;-46
2022/01/17 09:31:39;;;;;;;4.57;3.33;;;7.20;67.50;;;;;;7369784;19;20138;-46
2022/01/17 09:34:11;;;;;;;3.85;2.83;;;7.20;67.50;;;;;;7366862;19;20135;-46
2022/01/17 09:36:41;;;;;;;3.28;2.80;;;7.00;68.20;;;;;;7368074;19;20671;-46
2022/01/17 09:39:13;;;;;;;3.20;2.75;;;6.80;69.10;;;;;;7367120;19;20142;-46
2022/01/17 09:41:42;;;;;;;3.67;3.35;;;6.90;69.20;;;;;;7367404;19;20621;-47
2022/01/17 09:44:12;;;;;;;5.53;3.30;;;6.90;68.20;;;;;;7369346;19;20384;-46
2022/01/17 09:46:45;;;;;;;3.10;2.67;;;6.70;68.00;;;;;;7369644;19;20836;-46
2022/01/17 09:49:22;;;;;;;3.15;2.83;;;7.00;68.20;;;;;;7365324;19;20579;-46
2022/01/17 09:52:14;;;;;;;4.93;3.08;;;7.00;68.70;;;;;;7373228;19;20131;-46
2022/01/17 09:54:48;;;;;;;6.07;3.08;;;6.90;68.30;;;;;;7368069;19;20139;-45
2022/01/17 09:57:21;;;;;;;5.00;2.88;;;7.00;68.50;;;;;;7370782;19;21760;-46
2022/01/17 09:59:51;;;;;;;4.20;3.00;;;8.10;69.60;;;;;;7366101;19;20134;-46
2022/01/17 10:02:20;;;;;;;3.80;2.65;;;7.00;67.90;;;;;;7369917;19;20127;-46
2022/01/17 10:04:52;;;;;;;4.30;3.05;;;7.00;67.70;;;;;;7373050;19;20730;-46
2022/01/17 10:07:21;;;;;;;3.83;3.00;;;7.10;67.90;;;;;;7370631;19;20134;-46
2022/01/17 10:09:59;;;;;;;5.00;2.88;;;7.20;67.90;;;;;;7368667;19;20541;-46
2022/01/17 10:12:29;;;;;;;5.18;3.08;;;7.40;67.50;;;;;;7365691;19;20162;-46
2022/01/17 10:15:05;;;;;;;3.83;3.33;;;7.50;67.30;;;;;;7369881;19;20163;-45
2022/01/17 10:17:45;;;;;;;3.75;3.13;;;7.60;67.00;;;;;;7358596;19;20129;-47
2022/01/17 10:20:18;;;;;;;2.50;2.08;;;7.70;66.60;;;;;;7361489;19;20135;-47
2022/01/17 10:23:15;;;;;;;4.03;1.83;;;7.90;65.30;;;;;;7370773;19;20131;-47
2022/01/17 10:26:08;;;;;;;4.65;1.85;;;8.00;64.30;;;;;;7371440;19;20606;-47
2022/01/17 10:29:01;;;;;;;3.03;1.80;;;8.00;64.70;;;;;;7372136;19;20128;-47
2022/01/17 10:36:56;;;;;;;4.45;1.88;;;8.10;63.80;;;;;;7376275;19;20736;-47
2022/01/17 10:39:25;;;;;;;3.97;2.10;;;8.10;63.00;;;;;;7364729;19;20135;-47
2022/01/17 10:41:58;;;;;;;2.38;1.95;;;8.10;63.30;;;;;;7358193;19;20761;-47
2022/01/17 10:44:38;;;;;;;3.85;2.13;;;8.00;63.40;;;;;;7356869;19;20496;-47
2022/01/17 10:47:26;;;;;;;3.00;1.70;;;8.00;63.90;;;;;;7377947;19;20646;-47
2022/01/17 10:49:58;;;;;;;2.53;2.15;;;7.90;64.80;;;;;;7368169;19;20609;-46
2022/01/17 10:52:36;;;;;;;5.88;4.05;;;7.90;64.40;;;;;;7372633;19;20150;-47
2022/01/17 10:55:10;;;;;;;2.58;2.30;;;7.90;64.20;;;;;;7371153;19;20154;-46
2022/01/17 10:57:45;;;;;;;1.70;1.55;;;7.90;64.20;;;;;;7377170;19;20131;-46
2022/01/17 11:00:18;;;;;;;2.53;2.33;;;6.80;63.10;;;;;;7379204;19;20138;-38
2022/01/17 11:02:50;;;;;;;2.75;1.73;;;7.80;63.80;;;;;;7378442;19;20142;-38
2022/01/17 11:05:22;;;;;;;4.45;2.28;;;7.80;65.00;;;;;;7372291;19;20124;-38
2022/01/17 11:07:53;;;;;;;2.50;2.30;;;7.70;64.50;;;;;;7372231;19;20136;-37
2022/01/17 11:10:25;;;;;;;6.00;3.22;;;7.70;65.20;;;;;;7377558;19;20132;-37
2022/01/17 11:13:02;;;;;;;7.03;4.25;;;7.60;65.80;;;;;;7372635;19;20124;-37
2022/01/17 11:15:34;;;;;;;6.63;3.70;;;7.60;66.20;;;;;;7379644;19;20183;-38
2022/01/17 11:18:11;;;;;;;6.68;3.70;;;7.60;66.10;;;;;;7376871;19;20132;-38
2022/01/17 11:20:40;;;;;;;76.00;9.45;;;8.00;67.30;;;;;;7375403;19;20138;-38
2022/01/17 11:23:10;;;;;;;8.13;3.78;;;7.60;66.10;;;;;;7379137;19;20466;-38
2022/01/17 11:25:44;;;;;;;6.57;4.07;;;7.60;66.30;;;;;;7366699;19;20135;-38
2022/01/17 11:28:21;;;;;;;6.22;4.03;;;7.60;66.20;;;;;;7372831;19;20127;-38
2022/01/17 11:30:54;;;;;;;5.97;4.25;;;7.60;66.60;;;;;;7373675;19;20127;-47
2022/01/17 11:33:24;;;;;;;7.47;3.63;;;7.60;66.60;;;;;;7374033;19;20135;-47
2022/01/17 11:35:55;;;;;;;5.40;3.63;;;7.60;66.20;;;;;;7373053;19;20138;-47
2022/01/17 11:38:28;;;;;;;6.13;4.05;;;7.50;67.20;;;;;;7374400;19;20170;-47
2022/01/17 11:40:59;;;;;;;5.85;4.30;;;7.50;67.50;;;;;;7374261;19;20162;-47
2022/01/17 11:43:36;;;;;;;5.90;5.30;;;7.40;67.60;;;;;;7372046;19;20135;-48
2022/01/17 11:46:26;;;;;;;6.07;4.45;;;7.30;67.80;;;;;;7371725;19;20123;-47
2022/01/17 11:48:59;;;;;;;6.40;4.53;;;7.40;69.10;;;;;;7366627;19;20223;-47
2022/01/17 11:51:40;;;;;;;6.28;4.47;;;7.30;69.90;;;;;;7373960;19;20147;-47
2022/01/17 11:54:15;;;;;;;7.22;5.20;;;7.30;70.30;;;;;;7375024;19;20142;-47
2022/01/17 11:56:48;;;;;;;8.90;5.63;;;7.30;71.00;;;;;;7375550;19;20160;-47
2022/01/17 11:59:34;;;;;;;8.55;5.55;;;7.30;71.00;;;;;;7376847;19;20135;-46
2022/01/17 12:02:22;;;;;;;9.48;5.95;;;7.30;71.00;;;;;;7371216;19;20681;-38
2022/01/17 12:05:21;;;;;;;8.43;5.53;;;7.40;70.50;;;;;;7372234;19;20206;-38
2022/01/17 12:07:53;;;;;;;6.60;4.72;;;7.40;70.70;;;;;;7377157;19;20151;-38
2022/01/17 12:10:25;;;;;;;7.15;4.25;;;7.40;70.80;;;;;;7377473;19;21186;-38
2022/01/17 12:13:33;;;;;;;9.18;5.47;;;7.50;70.80;;;;;;7371152;19;20136;-38
2022/01/17 12:16:11;;;;;;;2.92;2.72;;;7.60;69.90;;;;;;7376755;19;20140;-38
2022/01/17 12:18:42;;;;;;;4.90;3.13;;;7.60;68.20;;;;;;7377589;19;20154;-38
2022/01/17 12:21:28;;;;;;;4.32;3.13;;;7.60;68.00;;;;;;7371278;19;20142;-38
2022/01/17 12:24:29;;;;;;;4.00;2.70;;;7.60;68.30;;;;;;7373138;19;20136;-38
2022/01/17 12:27:20;;;;;;;3.97;2.90;;;7.70;67.80;;;;;;7374937;19;20564;-37
2022/01/17 12:29:55;;;;;;;2.85;2.40;;;7.70;68.20;;;;;;7372019;19;20138;-38
2022/01/17 12:32:55;;;;;;;4.28;2.78;;;7.80;67.20;;;;;;7373846;19;20194;-38
2022/01/17 12:35:33;;;;;;;6.43;3.38;;;7.90;66.20;;;;;;7373373;19;20629;-38
2022/01/17 12:38:14;;;;;;;3.53;2.55;;;7.80;65.90;;;;;;7377575;19;21017;-38
2022/01/17 12:40:45;;;;;;;3.85;3.08;;;7.80;65.10;;;;;;7378625;19;20212;-37
2022/01/17 12:43:16;;;;;;;2.78;2.58;;;7.70;65.30;;;;;;7375470;19;20139;-38
2022/01/17 12:45:48;;;;;;;3.30;2.90;;;7.80;65.20;;;;;;7377563;19;20240;-37
2022/01/17 12:48:22;;;;;;;7.03;3.75;;;7.80;65.00;;;;;;7373045;19;20155;-37
2022/01/17 12:50:53;;;;;;;4.65;3.75;;;7.80;64.80;;;;;;7378969;19;21701;-37
2022/01/17 12:53:25;;;;;;;4.30;3.70;;;7.80;64.60;;;;;;7378541;19;20221;-37
2022/01/17 12:55:56;;;;;;;4.63;3.50;;;8.00;64.70;;;;;;7375581;19;20142;-38
2022/01/17 12:58:29;;;;;;;4.50;3.42;;;7.90;64.40;;;;;;7367902;19;20139;-38
2022/01/17 13:01:01;;;;;;;14.77;7.53;;;7.90;64.50;;;;;;7369492;19;20127;-46
2022/01/17 13:03:35;;;;;;;8.05;3.45;;;7.90;64.80;;;;;;7371539;19;20123;-46
2022/01/17 13:06:09;;;;;;;4.45;3.00;;;8.00;63.20;;;;;;7368693;19;20123;-46
2022/01/17 13:08:43;;;;;;;4.00;2.92;;;8.00;62.60;;;;;;7367639;19;20135;-46
2022/01/17 13:11:14;;;;;;;2.53;2.33;;;8.00;62.50;;;;;;7368996;19;20243;-46
2022/01/17 13:13:48;;;;;;;4.45;2.75;;;8.10;62.10;;;;;;7368094;19;20131;-47
2022/01/17 13:16:17;;;;;;;5.25;3.65;;;8.20;61.20;;;;;;7374318;19;20215;-46
2022/01/17 13:18:50;;;;;;;4.53;2.90;;;8.10;60.90;;;;;;7316871;19;20186;-47
2022/01/17 13:21:20;;;;;;;2.72;2.15;;;8.10;60.00;;;;;;7367804;19;20737;-47
2022/01/17 13:23:55;;;;;;;3.30;2.58;;;7.90;59.80;;;;;;7371814;19;20132;-47
2022/01/17 13:26:28;;;;;;;3.50;2.50;;;8.00;59.90;;;;;;7374189;19;20139;-46
2022/01/17 13:29:00;;;;;;;3.22;2.70;;;8.00;60.90;;;;;;7372623;19;20132;-46
2022/01/17 13:31:32;;;;;;;3.55;2.78;;;8.00;60.00;;;;;;7373236;19;20139;-47
2022/01/17 13:34:16;;;;;;;2.75;2.25;;;8.00;60.00;;;;;;7373414;19;20594;-46
2022/01/17 13:36:47;;;;;;;5.53;2.42;;;8.00;60.00;;;;;;7372458;19;20128;-46
2022/01/17 13:39:21;;;;;;;4.57;2.90;;;7.90;60.00;;;;;;7370271;19;20810;-46
2022/01/17 13:41:53;;;;;;;4.72;2.53;;;7.80;60.60;;;;;;7373023;19;20128;-47